createdAt,value
2022-12-03T00:01:01.041Z,98.11
2022-12-03T00:03:29.727Z,98.15
2022-12-03T00:05:57.738Z,97.86
2022-12-03T00:08:25.568Z,97.89
2022-12-03T00:10:53.482Z,98.02
2022-12-03T00:13:21.650Z,98.17
2022-12-03T00:15:49.739Z,98.26
2022-12-03T00:18:17.890Z,98.21
2022-12-03T00:20:45.849Z,98.28
2022-12-03T00:23:13.662Z,98.21
2022-12-03T00:25:41.595Z,98.35
2022-12-03T00:28:09.470Z,98.44
2022-12-03T00:30:37.332Z,98.53
2022-12-03T00:33:05.298Z,98.71
2022-12-03T00:35:33.360Z,98.63
2022-12-03T00:38:01.226Z,98.72
2022-12-03T00:40:29.377Z,98.65
2022-12-03T00:42:57.296Z,98.59
2022-12-03T00:45:25.237Z,98.92
2022-12-03T00:47:53.204Z,98.80
2022-12-03T00:50:21.173Z,98.79
2022-12-03T00:52:49.939Z,98.77
2022-12-03T00:55:17.895Z,98.89
2022-12-03T00:57:45.991Z,98.94
2022-12-03T01:00:14.684Z,99.10
2022-12-03T01:02:42.970Z,99.18
2022-12-03T01:05:11.429Z,99.24
2022-12-03T01:07:39.889Z,99.09
2022-12-03T01:10:08.305Z,99.29
2022-12-03T01:12:36.140Z,99.44
2022-12-03T01:15:05.657Z,99.54
2022-12-03T01:17:33.548Z,99.56
2022-12-03T01:20:03.965Z,99.63
2022-12-03T01:22:32.031Z,99.78
2022-12-03T01:25:00.212Z,99.73
2022-12-03T01:27:28.158Z,99.97
2022-12-03T01:29:56.050Z,99.75
2022-12-03T01:32:23.839Z,99.51
2022-12-03T01:34:53.865Z,99.43
2022-12-03T01:37:24.890Z,99.69
2022-12-03T01:39:53.023Z,99.83
2022-12-03T01:42:27.567Z,99.68
2022-12-03T01:44:58.417Z,99.75
2022-12-03T01:47:31.820Z,99.91
2022-12-03T01:50:15.735Z,100.00
2022-12-03T01:52:44.316Z,100.00
2022-12-03T01:55:16.587Z,99.89
2022-12-03T01:57:53.875Z,99.91
2022-12-03T02:00:26.976Z,100.00
2022-12-03T02:03:01.076Z,100.00
2022-12-03T02:05:31.349Z,100.00
2022-12-03T02:08:00.471Z,100.00
2022-12-03T02:10:32.816Z,100.00
2022-12-03T02:13:06.608Z,100.00
2022-12-03T02:15:36.072Z,100.00
2022-12-03T02:18:04.345Z,100.00
2022-12-03T02:20:37.080Z,100.00
2022-12-03T02:23:12.196Z,100.00
2022-12-03T02:25:40.019Z,100.00
2022-12-03T02:28:09.644Z,99.99
2022-12-03T02:30:37.795Z,100.00
2022-12-03T02:33:05.803Z,100.00
2022-12-03T02:35:36.718Z,100.00
2022-12-03T02:38:18.607Z,100.00
2022-12-03T02:40:49.341Z,100.00
2022-12-03T02:43:19.641Z,100.00
2022-12-03T02:45:51.669Z,100.00
2022-12-03T02:48:24.204Z,100.00
2022-12-03T02:50:55.921Z,100.00
2022-12-03T02:53:28.795Z,100.00
2022-12-03T02:55:59.553Z,100.00
2022-12-03T02:58:31.271Z,100.00
2022-12-03T03:01:00.989Z,100.00
2022-12-03T03:03:30.993Z,100.00
2022-12-03T03:06:02.357Z,100.00
2022-12-03T03:08:31.402Z,100.00
2022-12-03T03:11:01.563Z,100.00
2022-12-03T03:13:31.345Z,100.00
2022-12-03T03:15:59.746Z,100.00
2022-12-03T03:18:27.862Z,100.00
2022-12-03T03:20:55.957Z,100.00
2022-12-03T03:23:24.916Z,100.00
2022-12-03T03:26:11.549Z,100.00
2022-12-03T03:28:43.076Z,100.00
2022-12-03T03:31:14.300Z,100.00
2022-12-03T03:33:45.668Z,100.00
2022-12-03T03:36:15.360Z,100.00
2022-12-03T03:38:44.248Z,100.00
2022-12-03T03:41:13.442Z,100.00
2022-12-03T03:43:43.176Z,100.00
2022-12-03T03:46:12.358Z,100.00
2022-12-03T03:48:42.658Z,100.00
2022-12-03T03:51:12.652Z,100.00
2022-12-03T03:53:44.308Z,100.00
2022-12-03T03:56:12.565Z,100.00
2022-12-03T03:58:41.159Z,100.00
2022-12-03T04:01:11.409Z,100.00
2022-12-03T04:03:39.894Z,100.00
2022-12-03T04:06:09.164Z,100.00
2022-12-03T04:08:37.061Z,100.00
2022-12-03T04:11:23.802Z,100.00
2022-12-03T04:13:51.948Z,100.00
2022-12-03T04:16:19.917Z,100.00
2022-12-03T04:18:48.255Z,100.00
2022-12-03T04:21:40.870Z,100.00
2022-12-03T04:24:10.402Z,100.00
2022-12-03T04:26:57.107Z,100.00
2022-12-03T04:29:25.162Z,100.00
2022-12-03T04:32:11.639Z,100.00
2022-12-03T04:34:58.109Z,100.00
2022-12-03T04:37:26.055Z,100.00
2022-12-03T04:39:53.983Z,100.00
2022-12-03T04:42:22.140Z,100.00
2022-12-03T04:44:50.511Z,100.00
2022-12-03T04:47:20.870Z,100.00
2022-12-03T04:49:51.349Z,100.00
2022-12-03T04:52:20.583Z,100.00
2022-12-03T04:54:48.646Z,100.00
2022-12-03T04:57:17.441Z,100.00
2022-12-03T04:59:45.364Z,100.00
2022-12-03T05:02:13.271Z,100.00
2022-12-03T05:04:42.122Z,100.00
2022-12-03T05:07:11.430Z,100.00
2022-12-03T05:09:39.378Z,100.00
2022-12-03T05:12:07.551Z,100.00
2022-12-03T05:14:36.889Z,100.00
2022-12-03T05:17:05.011Z,100.00
2022-12-03T05:19:51.537Z,100.00
2022-12-03T05:22:19.424Z,100.00
2022-12-03T05:24:47.305Z,100.00
2022-12-03T05:27:18.859Z,100.00
2022-12-03T05:29:51.645Z,100.00
2022-12-03T05:32:20.070Z,100.00
2022-12-03T05:34:48.054Z,100.00
2022-12-03T05:37:16.110Z,100.00
2022-12-03T05:39:44.295Z,100.00
2022-12-03T05:42:31.422Z,100.00
2022-12-03T05:44:59.363Z,100.00
2022-12-03T05:47:27.338Z,100.00
2022-12-03T05:49:55.204Z,100.00
2022-12-03T05:52:22.968Z,100.00
2022-12-03T05:54:50.928Z,100.00
2022-12-03T05:57:19.136Z,100.00
2022-12-03T05:59:46.908Z,100.00
2022-12-03T06:02:14.807Z,100.00
2022-12-03T06:04:42.902Z,100.00
2022-12-03T06:07:13.939Z,100.00
2022-12-03T06:09:42.250Z,100.00
2022-12-03T06:12:10.157Z,100.00
2022-12-03T06:14:38.237Z,100.00
2022-12-03T06:17:06.031Z,100.00
2022-12-03T06:19:34.816Z,100.00
2022-12-03T06:22:02.602Z,100.00
2022-12-03T06:24:30.518Z,100.00
2022-12-03T06:26:58.382Z,100.00
2022-12-03T06:29:26.234Z,100.00
2022-12-03T06:31:54.138Z,100.00
2022-12-03T06:34:22.122Z,100.00
2022-12-03T06:36:50.397Z,100.00
2022-12-03T06:39:18.571Z,100.00
2022-12-03T06:41:46.519Z,100.00
2022-12-03T06:44:15.121Z,100.00
2022-12-03T06:46:43.232Z,100.00
2022-12-03T06:49:11.102Z,100.00
2022-12-03T06:51:39.568Z,100.00
2022-12-03T06:54:07.560Z,100.00
2022-12-03T06:56:40.419Z,100.00
2022-12-03T06:59:13.601Z,100.00
2022-12-03T07:01:41.656Z,100.00
2022-12-03T07:04:09.988Z,100.00
2022-12-03T07:06:37.905Z,100.00
2022-12-03T07:09:05.778Z,100.00
2022-12-03T07:11:39.734Z,100.00
2022-12-03T07:14:11.477Z,100.00
2022-12-03T07:16:40.074Z,100.00
2022-12-03T07:19:08.149Z,100.00
2022-12-03T07:21:36.037Z,100.00
2022-12-03T07:24:04.131Z,100.00
2022-12-03T07:26:32.530Z,100.00
2022-12-03T07:29:00.468Z,100.00
2022-12-03T07:31:28.584Z,100.00
2022-12-03T07:33:56.714Z,100.00
2022-12-03T07:36:24.645Z,100.00
2022-12-03T07:38:52.481Z,100.00
2022-12-03T07:41:20.366Z,100.00
2022-12-03T07:43:48.404Z,100.00
2022-12-03T07:46:18.751Z,100.00
2022-12-03T07:48:46.726Z,100.00
2022-12-03T07:51:15.567Z,100.00
2022-12-03T07:53:43.704Z,100.00
2022-12-03T07:56:11.749Z,100.00
2022-12-03T07:58:39.792Z,100.00
2022-12-03T08:01:07.919Z,100.00
2022-12-03T08:03:36.224Z,100.00
2022-12-03T08:06:04.364Z,100.00
2022-12-03T08:08:32.267Z,100.00
2022-12-03T08:11:02.136Z,100.00
2022-12-03T08:13:30.460Z,100.00
2022-12-03T08:16:02.123Z,100.00
2022-12-03T08:18:30.093Z,100.00
2022-12-03T08:20:58.406Z,99.98
2022-12-03T08:23:26.526Z,99.59
2022-12-03T08:25:54.582Z,99.24
2022-12-03T08:28:26.639Z,98.83
2022-12-03T08:31:02.583Z,98.06
2022-12-03T08:33:35.254Z,98.19
2022-12-03T08:36:30.725Z,98.60
2022-12-03T08:39:23.169Z,97.23
2022-12-03T08:42:15.259Z,97.09
2022-12-03T08:44:43.128Z,97.04
2022-12-03T08:47:17.126Z,96.87
2022-12-03T08:49:54.476Z,96.61
2022-12-03T08:52:31.391Z,96.50
2022-12-03T08:55:02.826Z,95.80
2022-12-03T08:57:34.579Z,94.97
2022-12-03T09:00:15.540Z,94.79
2022-12-03T09:02:47.517Z,94.42
2022-12-03T09:05:26.396Z,93.97
2022-12-03T09:07:54.499Z,93.34
2022-12-03T09:10:22.546Z,92.51
2022-12-03T09:12:50.514Z,90.99
2022-12-03T09:15:18.339Z,90.43
2022-12-03T09:17:46.203Z,90.80
2022-12-03T09:20:14.188Z,90.15
2022-12-03T09:22:42.287Z,90.09
2022-12-03T09:25:10.460Z,88.66
2022-12-03T09:27:38.297Z,88.09
2022-12-03T09:30:06.849Z,88.52
2022-12-03T09:32:34.827Z,88.84
2022-12-03T09:35:04.952Z,89.13
2022-12-03T09:37:32.853Z,89.21
2022-12-03T09:40:01.028Z,88.79
2022-12-03T09:42:28.955Z,87.79
2022-12-03T09:44:57.085Z,88.04
2022-12-03T09:47:25.502Z,88.07
2022-12-03T09:49:53.958Z,87.02
2022-12-03T09:52:28.957Z,86.40
2022-12-03T09:54:58.560Z,86.10
2022-12-03T09:57:26.769Z,86.91
2022-12-03T09:59:58.871Z,87.04
2022-12-03T10:02:30.044Z,87.25
2022-12-03T10:04:58.483Z,86.70
2022-12-03T10:07:26.658Z,86.86
2022-12-03T10:09:54.903Z,87.32
2022-12-03T10:12:25.105Z,87.01
2022-12-03T10:14:54.315Z,86.98
2022-12-03T10:17:22.590Z,87.52
2022-12-03T10:19:50.621Z,86.31
2022-12-03T10:22:18.704Z,86.19
2022-12-03T10:25:04.055Z,85.39
2022-12-03T10:27:33.218Z,84.33
2022-12-03T10:30:04.773Z,84.77
2022-12-03T10:32:45.508Z,84.80
2022-12-03T10:35:21.036Z,84.25
2022-12-03T10:37:59.835Z,84.09
2022-12-03T10:40:33.609Z,84.41
2022-12-03T10:43:15.545Z,84.74
2022-12-03T10:45:48.277Z,84.69
2022-12-03T10:48:19.357Z,84.52
2022-12-03T10:50:52.100Z,84.71
2022-12-03T10:53:22.504Z,84.65
2022-12-03T10:55:52.494Z,84.47
2022-12-03T10:58:26.195Z,84.19
2022-12-03T11:00:56.442Z,83.54
2022-12-03T11:03:30.768Z,83.45
2022-12-03T11:06:01.664Z,83.40
2022-12-03T11:08:34.195Z,82.99
2022-12-03T11:11:06.984Z,81.83
2022-12-03T11:13:34.783Z,80.27
2022-12-03T11:16:05.787Z,80.42
2022-12-03T11:18:36.568Z,80.43
2022-12-03T11:21:09.109Z,81.13
2022-12-03T11:23:46.757Z,80.60
2022-12-03T11:26:19.650Z,79.72
2022-12-03T11:28:47.864Z,80.79
2022-12-03T11:31:38.367Z,80.49
2022-12-03T11:34:31.549Z,79.70
2022-12-03T11:37:10.071Z,79.56
2022-12-03T11:39:55.654Z,79.93
2022-12-03T11:42:26.628Z,79.49
2022-12-03T11:45:06.770Z,79.59
2022-12-03T11:47:39.766Z,80.49
2022-12-03T11:50:20.898Z,80.32
2022-12-03T11:52:54.567Z,80.01
2022-12-03T11:55:33.098Z,80.08
2022-12-03T11:58:15.260Z,79.58
2022-12-03T12:00:55.312Z,79.50
2022-12-03T12:03:24.810Z,79.00
2022-12-03T12:06:19.288Z,79.71
2022-12-03T12:08:49.852Z,79.86
2022-12-03T12:11:19.347Z,79.40
2022-12-03T12:13:47.201Z,79.09
2022-12-03T12:16:56.028Z,79.40
2022-12-03T12:19:49.748Z,79.86
2022-12-03T12:22:29.825Z,80.53
2022-12-03T12:24:59.065Z,80.43
2022-12-03T12:27:37.757Z,80.46
2022-12-03T12:30:10.026Z,79.99
2022-12-03T12:32:47.184Z,80.05
2022-12-03T12:35:17.232Z,80.07
2022-12-03T12:38:01.060Z,80.32
2022-12-03T12:40:32.359Z,80.53
2022-12-03T12:43:10.244Z,80.87
2022-12-03T12:45:42.861Z,81.14
2022-12-03T12:48:31.401Z,81.61
2022-12-03T12:51:20.818Z,81.72
2022-12-03T12:53:50.232Z,81.88
2022-12-03T12:56:25.030Z,81.62
2022-12-03T12:58:53.954Z,81.66
2022-12-03T13:01:32.696Z,81.57
2022-12-03T13:04:00.795Z,81.89
2022-12-03T13:06:32.020Z,81.45
2022-12-03T13:09:02.475Z,81.56
2022-12-03T13:11:45.628Z,81.96
2022-12-03T13:14:31.532Z,82.17
2022-12-03T13:17:02.105Z,81.72
2022-12-03T13:19:43.302Z,81.77
2022-12-03T13:22:22.406Z,81.32
2022-12-03T13:24:52.019Z,81.48
2022-12-03T13:27:19.966Z,81.77
2022-12-03T13:29:53.621Z,81.70
2022-12-03T13:32:27.722Z,81.35
2022-12-03T13:35:02.530Z,81.41
2022-12-03T13:37:32.056Z,81.79
2022-12-03T13:40:12.662Z,82.09
2022-12-03T13:42:45.191Z,82.49
2022-12-03T13:45:19.160Z,82.70
2022-12-03T13:47:49.460Z,83.02
2022-12-03T13:50:35.763Z,83.16
2022-12-03T13:53:28.469Z,83.54
2022-12-03T13:56:31.783Z,83.77
2022-12-03T13:59:01.228Z,84.14
2022-12-03T14:01:29.228Z,84.55
2022-12-03T14:03:57.442Z,84.78
2022-12-03T14:06:25.257Z,85.05
2022-12-03T14:08:53.509Z,85.35
2022-12-03T14:11:40.175Z,85.76
2022-12-03T14:14:08.203Z,86.04
2022-12-03T14:16:36.090Z,86.30
2022-12-03T14:19:04.246Z,86.53
2022-12-03T14:21:32.212Z,86.79
2022-12-03T14:24:00.194Z,87.00
2022-12-03T14:26:28.101Z,87.10
2022-12-03T14:28:56.186Z,87.24
2022-12-03T14:31:24.427Z,87.27
2022-12-03T14:33:52.739Z,87.45
2022-12-03T14:36:20.912Z,87.46
2022-12-03T14:38:48.780Z,87.37
2022-12-03T14:41:35.453Z,87.63
2022-12-03T14:44:03.464Z,87.93
2022-12-03T14:46:34.036Z,88.20
2022-12-03T14:49:01.966Z,88.40
2022-12-03T14:51:30.027Z,88.54
2022-12-03T14:53:57.867Z,88.66
2022-12-03T14:56:25.840Z,88.66
2022-12-03T14:58:53.842Z,88.67
2022-12-03T15:01:21.822Z,88.70
2022-12-03T15:03:49.806Z,88.80
2022-12-03T15:06:17.731Z,88.91
2022-12-03T15:08:45.615Z,89.20
2022-12-03T15:11:13.569Z,89.40
2022-12-03T15:13:41.383Z,89.46
2022-12-03T15:16:09.300Z,89.62
2022-12-03T15:18:37.268Z,89.67
2022-12-03T15:21:05.752Z,89.77
2022-12-03T15:23:34.905Z,89.84
2022-12-03T15:26:03.515Z,89.84
2022-12-03T15:28:31.408Z,89.88
2022-12-03T15:30:59.305Z,89.90
2022-12-03T15:33:27.587Z,89.99
2022-12-03T15:35:55.445Z,89.96
2022-12-03T15:38:23.387Z,89.82
2022-12-03T15:40:51.330Z,89.75
2022-12-03T15:43:19.301Z,89.77
2022-12-03T15:45:47.226Z,89.70
2022-12-03T15:48:15.144Z,89.72
2022-12-03T15:50:43.004Z,89.68
2022-12-03T15:53:10.806Z,89.51
2022-12-03T15:55:38.650Z,89.56
2022-12-03T15:58:06.679Z,89.85
2022-12-03T16:00:34.534Z,90.22
2022-12-03T16:03:02.464Z,90.14
2022-12-03T16:05:30.454Z,90.43
2022-12-03T16:07:58.626Z,90.83
2022-12-03T16:10:26.553Z,91.31
2022-12-03T16:12:54.418Z,91.22
2022-12-03T16:15:27.048Z,91.58
2022-12-03T16:17:55.568Z,91.25
2022-12-03T16:20:23.434Z,91.79
2022-12-03T16:22:52.152Z,92.34
2022-12-03T16:25:20.040Z,92.65
2022-12-03T16:27:47.960Z,92.69
2022-12-03T16:30:16.095Z,93.13
2022-12-03T16:32:43.916Z,93.27
2022-12-03T16:35:11.848Z,93.41
2022-12-03T16:37:39.775Z,93.72
2022-12-03T16:40:08.576Z,93.98
2022-12-03T16:42:37.438Z,94.14
2022-12-03T16:45:10.328Z,93.93
2022-12-03T16:47:38.397Z,93.85
2022-12-03T16:50:11.564Z,93.65
2022-12-03T16:52:42.460Z,93.93
2022-12-03T16:55:10.474Z,93.80
2022-12-03T16:57:38.469Z,94.09
2022-12-03T17:00:07.685Z,94.29
2022-12-03T17:02:35.647Z,94.49
2022-12-03T17:05:03.728Z,94.79
2022-12-03T17:07:31.734Z,94.61
2022-12-03T17:09:59.709Z,94.82
2022-12-03T17:12:37.452Z,95.34
2022-12-03T17:15:15.513Z,95.66
2022-12-03T17:17:43.483Z,95.33
2022-12-03T17:20:13.384Z,95.22
2022-12-03T17:22:41.869Z,95.17
2022-12-03T17:25:10.972Z,95.45
2022-12-03T17:27:44.813Z,95.87
2022-12-03T17:30:13.919Z,96.15
2022-12-03T17:32:42.183Z,96.74
2022-12-03T17:35:11.380Z,96.67
2022-12-03T17:37:40.710Z,96.47
2022-12-03T17:40:11.415Z,96.48
2022-12-03T17:42:39.653Z,96.66
2022-12-03T17:45:08.757Z,96.66
2022-12-03T17:47:36.692Z,96.43
2022-12-03T17:50:05.504Z,96.65
2022-12-03T17:52:33.682Z,96.78
2022-12-03T17:55:11.894Z,96.51
2022-12-03T17:57:42.520Z,96.79
2022-12-03T18:00:11.568Z,96.69
2022-12-03T18:02:43.001Z,96.65
2022-12-03T18:05:10.975Z,96.57
2022-12-03T18:07:38.936Z,96.60
2022-12-03T18:10:07.605Z,96.40
2022-12-03T18:12:35.469Z,96.31
2022-12-03T18:15:03.873Z,96.01
2022-12-03T18:17:31.825Z,95.60
2022-12-03T18:19:59.663Z,95.47
2022-12-03T18:22:28.344Z,95.22
2022-12-03T18:24:56.691Z,94.94
2022-12-03T18:27:25.122Z,94.58
2022-12-03T18:29:53.332Z,93.99
2022-12-03T18:32:28.883Z,93.56
2022-12-03T18:34:58.456Z,93.25
2022-12-03T18:37:28.667Z,93.33
2022-12-03T18:39:58.238Z,92.96
2022-12-03T18:42:26.794Z,92.22
2022-12-03T18:44:56.605Z,92.07
2022-12-03T18:47:28.542Z,91.73
2022-12-03T18:49:57.229Z,91.23
2022-12-03T18:52:26.189Z,91.15
2022-12-03T18:54:55.440Z,91.34
2022-12-03T18:57:24.080Z,91.57
2022-12-03T18:59:52.148Z,91.78
2022-12-03T19:02:54.154Z,91.70
2022-12-03T19:05:12.009Z,91.81
2022-12-03T19:07:40.118Z,91.55
2022-12-03T19:10:09.008Z,91.42
2022-12-03T19:12:37.792Z,91.62
2022-12-03T19:15:06.731Z,91.47
2022-12-03T19:17:34.649Z,91.38
2022-12-03T19:20:02.487Z,91.07
2022-12-03T19:22:30.304Z,90.74
2022-12-03T19:24:58.360Z,90.89
2022-12-03T19:27:26.359Z,90.72
2022-12-03T19:29:54.354Z,90.60
2022-12-03T19:32:22.511Z,90.48
2022-12-03T19:34:50.438Z,90.48
2022-12-03T19:37:18.243Z,90.15
2022-12-03T19:39:46.588Z,90.33
2022-12-03T19:42:14.392Z,90.33
2022-12-03T19:44:42.247Z,90.28
2022-12-03T19:47:10.198Z,90.44
2022-12-03T19:49:38.207Z,90.31
2022-12-03T19:52:06.029Z,90.23
2022-12-03T19:54:33.890Z,90.43
2022-12-03T19:57:01.862Z,90.52
2022-12-03T19:59:29.841Z,90.20
2022-12-03T20:01:57.892Z,90.22
2022-12-03T20:04:26.630Z,90.12
2022-12-03T20:06:54.739Z,90.22
2022-12-03T20:09:22.713Z,90.21
2022-12-03T20:11:51.319Z,90.32
2022-12-03T20:14:19.833Z,90.40
2022-12-03T20:16:48.673Z,90.69
2022-12-03T20:19:17.959Z,90.67
2022-12-03T20:21:45.940Z,90.43
2022-12-03T20:24:16.103Z,90.45
2022-12-03T20:26:44.155Z,90.63
2022-12-03T20:29:12.504Z,91.11
2022-12-03T20:31:40.561Z,91.22
2022-12-03T20:34:10.530Z,91.20
2022-12-03T20:36:39.376Z,91.24
2022-12-03T20:39:08.110Z,91.23
2022-12-03T20:41:37.017Z,91.15
2022-12-03T20:44:07.597Z,91.19
2022-12-03T20:46:36.432Z,91.17
2022-12-03T20:49:05.701Z,91.29
2022-12-03T20:51:33.780Z,91.47
2022-12-03T20:54:02.685Z,91.58
2022-12-03T20:56:33.181Z,91.39
2022-12-03T20:59:04.911Z,91.45
2022-12-03T21:01:33.718Z,91.52
2022-12-03T21:04:04.166Z,91.61
2022-12-03T21:06:34.253Z,91.59
2022-12-03T21:09:05.754Z,91.70
2022-12-03T21:11:35.924Z,91.66
2022-12-03T21:14:04.213Z,91.71
2022-12-03T21:19:23.972Z,91.48
2022-12-03T21:21:51.974Z,91.61
2022-12-03T21:24:19.912Z,91.56
2022-12-03T21:26:47.902Z,91.50
2022-12-03T21:29:16.687Z,92.07
2022-12-03T21:31:44.655Z,92.06
2022-12-03T21:34:12.729Z,91.95
2022-12-03T21:36:40.797Z,91.92
2022-12-03T21:39:08.972Z,92.10
2022-12-03T21:41:36.879Z,92.41
2022-12-03T21:44:04.799Z,92.49
2022-12-03T21:47:10.665Z,92.26
2022-12-03T21:49:20.916Z,92.54
2022-12-03T21:51:49.193Z,92.57
2022-12-03T21:54:17.139Z,92.63
2022-12-03T21:56:45.033Z,92.92
2022-12-03T21:59:13.073Z,93.22
2022-12-03T22:01:46.771Z,93.25
2022-12-03T22:04:15.388Z,93.44
2022-12-03T22:06:43.246Z,93.54
2022-12-03T22:09:11.203Z,93.72
2022-12-03T22:11:39.186Z,93.81
2022-12-03T22:14:08.604Z,94.09
2022-12-03T22:16:36.494Z,94.43
2022-12-03T22:19:04.538Z,94.36
2022-12-03T22:21:32.506Z,94.37
2022-12-03T22:24:00.360Z,94.44
2022-12-03T22:26:28.278Z,94.40
2022-12-03T22:28:56.169Z,94.29
2022-12-03T22:31:24.128Z,94.43
2022-12-03T22:33:52.336Z,94.40
2022-12-03T22:36:21.780Z,94.30
2022-12-03T22:38:51.344Z,94.20
2022-12-03T22:41:19.832Z,94.19
2022-12-03T22:43:49.818Z,93.96
2022-12-03T22:46:17.830Z,93.86
2022-12-03T22:48:47.054Z,94.02
2022-12-03T22:51:19.461Z,94.14
2022-12-03T22:53:48.578Z,94.09
2022-12-03T22:56:17.358Z,94.02
2022-12-03T22:58:45.342Z,93.87
2022-12-03T23:01:40.549Z,93.66
2022-12-03T23:04:08.915Z,93.81
2022-12-03T23:06:37.917Z,93.92
2022-12-03T23:09:07.347Z,93.86
2022-12-03T23:11:36.346Z,93.95
2022-12-03T23:14:04.897Z,93.77
2022-12-03T23:16:34.269Z,93.64
2022-12-03T23:19:03.796Z,93.72
2022-12-03T23:21:34.659Z,93.64
2022-12-03T23:24:05.644Z,93.65
2022-12-03T23:26:35.072Z,93.69
2022-12-03T23:29:04.277Z,94.19
2022-12-03T23:31:33.319Z,93.98
2022-12-03T23:34:01.958Z,93.67
2022-12-03T23:36:32.478Z,93.61
2022-12-03T23:39:00.856Z,93.52
2022-12-03T23:41:28.838Z,93.58
2022-12-03T23:43:57.621Z,93.67
2022-12-03T23:46:27.797Z,93.74
2022-12-03T23:48:58.679Z,93.94
2022-12-03T23:51:26.946Z,93.72
2022-12-03T23:53:55.944Z,93.82
2022-12-03T23:56:27.514Z,93.99
2022-12-03T23:58:57.275Z,94.05
